PWSweather.com
Personal Weather Stations
Station Observations
IHTIMAN1
Neighbourhood 1, IhtimanBG 2050

Neighbourhood 1IhtimanBG 2050

Lat: 42.436852, Lon: 23.817921

Elevation: 2066

Station Type: Oregon Scientific WMR968

http://ihtiman-meteo.com

High Low Average
Temperature 74.6°F23.7°C 37.0°F2.8°C 57.7°F14.3°C
Dew Point 44.4°F6.9°C 33.7°F0.9°C 37.6°F3.1°C
Winds 5.8 mph 9.3 kmh Calm Calm 1.0 mph SSW1.6 kmh SSW
Wind Gusts 9.2 mph14.8 kmh -- 2.0 mph3.2 kmh
Humidity 96% 26% 53%
Pressure 29.97 in1014.9 mb 29.86 in1011.2 mb -
Precipitation 0.00 in0.0 mm - -
Hour Temp Dew Point Humidity Winds Wind Gusts Pressure Precip Precip Rate Daily Precip Total
12:00 AM 45.1°F7.3°C 37.3°F2.9°C 74% Calm Calm -- 29.94 in1013.9 mb - 0.00 in0.0 mm 0.00 in0.0 mm
12:10 AM 45.0°F7.2°C 37.5°F3.1°C 75% Calm Calm -- 29.94 in1013.9 mb - 0.00 in0.0 mm 0.00 in0.0 mm
12:20 AM 44.7°F7.1°C 37.6°F3.1°C 76% Calm Calm -- 29.94 in1013.9 mb - 0.00 in0.0 mm 0.00 in0.0 mm
12:30 AM 44.2°F6.8°C 37.5°F3.1°C 77% Calm Calm -- 29.94 in1013.9 mb - 0.00 in0.0 mm 0.00 in0.0 mm
12:40 AM 43.8°F6.6°C 37.0°F2.8°C 77% Calm Calm -- 29.94 in1013.9 mb - 0.00 in0.0 mm 0.00 in0.0 mm
12:50 AM 43.5°F6.4°C 36.8°F2.7°C 77% Calm Calm -- 29.97 in1014.9 mb - 0.00 in0.0 mm 0.00 in0.0 mm
01:00 AM 43.3°F6.3°C 36.9°F2.7°C 78% Calm Calm -- 29.94 in1013.9 mb - 0.00 in0.0 mm 0.00 in0.0 mm
01:10 AM 43.3°F6.3°C 37.2°F2.9°C 79% Calm Calm -- 29.94 in1013.9 mb - 0.00 in0.0 mm 0.00 in0.0 mm
01:20 AM 43.2°F6.2°C 37.4°F3.0°C 80% Calm Calm -- 29.94 in1013.9 mb - 0.00 in0.0 mm 0.00 in0.0 mm
01:30 AM 42.8°F6.0°C 37.1°F2.8°C 80% Calm Calm -- 29.94 in1013.9 mb - 0.00 in0.0 mm 0.00 in0.0 mm
01:40 AM 42.4°F5.8°C 37.0°F2.8°C 81% Calm Calm -- 29.94 in1013.9 mb - 0.00 in0.0 mm 0.00 in0.0 mm
01:50 AM 42.1°F5.6°C 36.7°F2.6°C 81% Calm Calm -- 29.94 in1013.9 mb - 0.00 in0.0 mm 0.00 in0.0 mm
02:00 AM 41.9°F5.5°C 36.8°F2.7°C 82% Calm Calm -- 29.94 in1013.9 mb - 0.00 in0.0 mm 0.00 in0.0 mm
02:10 AM 41.7°F5.4°C 36.9°F2.7°C 83% Calm Calm -- 29.94 in1013.9 mb - 0.00 in0.0 mm 0.00 in0.0 mm
02:20 AM 41.5°F5.3°C 36.8°F2.7°C 83% Calm Calm -- 29.94 in1013.9 mb - 0.00 in0.0 mm 0.00 in0.0 mm
02:30 AM 41.2°F5.1°C 36.7°F2.6°C 84% Calm Calm -- 29.94 in1013.9 mb - 0.00 in0.0 mm 0.00 in0.0 mm
02:40 AM 41.0°F5.0°C 36.5°F2.5°C 84% Calm Calm -- 29.94 in1013.9 mb - 0.00 in0.0 mm 0.00 in0.0 mm
02:50 AM 40.6°F4.8°C 36.5°F2.5°C 85% Calm Calm 3.5 mph5.6 kmh 29.94 in1013.9 mb - 0.00 in0.0 mm 0.00 in0.0 mm
03:00 AM 39.7°F4.3°C 35.6°F2.0°C 85% Calm Calm -- 29.94 in1013.9 mb - 0.00 in0.0 mm 0.00 in0.0 mm
03:10 AM 39.4°F4.1°C 35.2°F1.8°C 85% Calm Calm -- 29.94 in1013.9 mb - 0.00 in0.0 mm 0.00 in0.0 mm
03:20 AM 39.4°F4.1°C 35.5°F1.9°C 86% Calm Calm -- 29.94 in1013.9 mb - 0.00 in0.0 mm 0.00 in0.0 mm
03:30 AM 39.4°F4.1°C 35.8°F2.1°C 87% Calm Calm -- 29.94 in1013.9 mb - 0.00 in0.0 mm 0.00 in0.0 mm
03:40 AM 39.2°F4.0°C 35.7°F2.1°C 87% Calm Calm -- 29.94 in1013.9 mb - 0.00 in0.0 mm 0.00 in0.0 mm
03:50 AM 39.2°F4.0°C 35.9°F2.2°C 88% Calm Calm -- 29.94 in1013.9 mb - 0.00 in0.0 mm 0.00 in0.0 mm
04:00 AM 39.1°F3.9°C 36.1°F2.3°C 89% Calm Calm -- 29.94 in1013.9 mb - 0.00 in0.0 mm 0.00 in0.0 mm
04:10 AM 39.0°F3.9°C 36.1°F2.3°C 89% Calm Calm -- 29.94 in1013.9 mb - 0.00 in0.0 mm 0.00 in0.0 mm
04:20 AM 39.2°F4.0°C 36.2°F2.3°C 89% Calm Calm -- 29.94 in1013.9 mb - 0.00 in0.0 mm 0.00 in0.0 mm
04:30 AM 38.9°F3.8°C 36.3°F2.4°C 90% Calm Calm -- 29.94 in1013.9 mb - 0.00 in0.0 mm 0.00 in0.0 mm
04:40 AM 38.7°F3.7°C 36.0°F2.2°C 90% Calm Calm -- 29.94 in1013.9 mb - 0.00 in0.0 mm 0.00 in0.0 mm
04:50 AM 38.3°F3.5°C 35.6°F2.0°C 90% Calm Calm -- 29.94 in1013.9 mb - 0.00 in0.0 mm 0.00 in0.0 mm
05:00 AM 37.9°F3.3°C 35.3°F1.8°C 90% Calm Calm -- 29.94 in1013.9 mb - 0.00 in0.0 mm 0.00 in0.0 mm
05:10 AM 37.6°F3.1°C 34.9°F1.6°C 90% Calm Calm -- 29.94 in1013.9 mb - 0.00 in0.0 mm 0.00 in0.0 mm
05:20 AM 37.2°F2.9°C 34.6°F1.4°C 90% Calm Calm -- 29.94 in1013.9 mb - 0.00 in0.0 mm 0.00 in0.0 mm
05:30 AM 37.0°F2.8°C 34.7°F1.5°C 91% Calm Calm -- 29.94 in1013.9 mb - 0.00 in0.0 mm 0.00 in0.0 mm
05:40 AM 37.0°F2.8°C 34.7°F1.5°C 91% Calm Calm -- 29.94 in1013.9 mb - 0.00 in0.0 mm 0.00 in0.0 mm
05:50 AM 37.2°F2.9°C 34.8°F1.6°C 91% Calm Calm -- 29.94 in1013.9 mb - 0.00 in0.0 mm 0.00 in0.0 mm
06:00 AM 37.4°F3.0°C 35.0°F1.7°C 91% Calm Calm -- 29.94 in1013.9 mb - 0.00 in0.0 mm 0.00 in0.0 mm
06:10 AM 37.4°F3.0°C 35.0°F1.7°C 91% Calm Calm -- 29.94 in1013.9 mb - 0.00 in0.0 mm 0.00 in0.0 mm
06:20 AM 37.4°F3.0°C 35.3°F1.8°C 92% Calm Calm -- 29.97 in1014.9 mb - 0.00 in0.0 mm 0.00 in0.0 mm
06:30 AM 37.8°F3.2°C 35.7°F2.1°C 92% Calm Calm -- 29.97 in1014.9 mb - 0.00 in0.0 mm 0.00 in0.0 mm
06:40 AM 39.3°F4.1°C 37.7°F3.2°C 94% 1.2 mph SW1.9 kmh SW 2.3 mph3.7 kmh 29.97 in1014.9 mb - 0.00 in0.0 mm 0.00 in0.0 mm
06:50 AM 40.5°F4.7°C 39.2°F4.0°C 95% Calm Calm -- 29.97 in1014.9 mb - 0.00 in0.0 mm 0.00 in0.0 mm
07:00 AM 41.3°F5.2°C 40.3°F4.6°C 96% 3.5 mph SW5.6 kmh SW 3.5 mph5.6 kmh 29.97 in1014.9 mb - 0.00 in0.0 mm 0.00 in0.0 mm
07:10 AM 41.5°F5.3°C 40.5°F4.7°C 96% Calm Calm -- 29.97 in1014.9 mb - 0.00 in0.0 mm 0.00 in0.0 mm
07:20 AM 42.4°F5.8°C 41.3°F5.2°C 96% Calm Calm -- 29.97 in1014.9 mb - 0.00 in0.0 mm 0.00 in0.0 mm
07:30 AM 44.3°F6.8°C 43.0°F6.1°C 95% 1.2 mph SSE1.9 kmh SSE 3.5 mph5.6 kmh 29.97 in1014.9 mb - 0.00 in0.0 mm 0.00 in0.0 mm
07:40 AM 47.2°F8.4°C 44.4°F6.9°C 90% Calm Calm -- 29.97 in1014.9 mb - 0.00 in0.0 mm 0.00 in0.0 mm
07:50 AM 48.7°F9.3°C 43.4°F6.3°C 82% Calm Calm -- 29.97 in1014.9 mb - 0.00 in0.0 mm 0.00 in0.0 mm
08:00 AM 50.0°F10.0°C 42.7°F5.9°C 76% Calm Calm -- 29.97 in1014.9 mb - 0.00 in0.0 mm 0.00 in0.0 mm
08:10 AM 50.9°F10.5°C 42.2°F5.7°C 72% Calm Calm -- 29.97 in1014.9 mb - 0.00 in0.0 mm 0.00 in0.0 mm
08:20 AM 51.6°F10.9°C 41.7°F5.4°C 69% Calm Calm -- 29.97 in1014.9 mb - 0.00 in0.0 mm 0.00 in0.0 mm
08:30 AM 52.8°F11.6°C 42.1°F5.6°C 67% Calm Calm -- 29.97 in1014.9 mb - 0.00 in0.0 mm 0.00 in0.0 mm
08:40 AM 54.9°F12.7°C 43.3°F6.3°C 65% 1.2 mph S1.9 kmh S 3.5 mph5.6 kmh 29.97 in1014.9 mb - 0.00 in0.0 mm 0.00 in0.0 mm
08:50 AM 56.3°F13.5°C 42.6°F5.9°C 60% Calm Calm 2.3 mph3.7 kmh 29.97 in1014.9 mb - 0.00 in0.0 mm 0.00 in0.0 mm
09:00 AM 59.2°F15.1°C 43.5°F6.4°C 56% Calm Calm -- 29.97 in1014.9 mb - 0.00 in0.0 mm 0.00 in0.0 mm
09:10 AM 60.4°F15.8°C 43.2°F6.2°C 53% Calm Calm 3.5 mph5.6 kmh 29.97 in1014.9 mb - 0.00 in0.0 mm 0.00 in0.0 mm
09:20 AM 61.9°F16.6°C 43.0°F6.1°C 50% Calm Calm -- 29.97 in1014.9 mb - 0.00 in0.0 mm 0.00 in0.0 mm
09:30 AM 63.0°F17.2°C 43.5°F6.4°C 49% 3.5 mph S5.6 kmh S 5.8 mph9.3 kmh 29.97 in1014.9 mb - 0.00 in0.0 mm 0.00 in0.0 mm
09:40 AM 63.5°F17.5°C 43.5°F6.4°C 48% Calm Calm 3.5 mph5.6 kmh 29.97 in1014.9 mb - 0.00 in0.0 mm 0.00 in0.0 mm
09:50 AM 65.3°F18.5°C 43.4°F6.3°C 45% 3.5 mph NW5.6 kmh NW 5.8 mph9.3 kmh 29.97 in1014.9 mb - 0.00 in0.0 mm 0.00 in0.0 mm
10:00 AM 66.3°F19.1°C 43.1°F6.2°C 43% Calm Calm -- 29.97 in1014.9 mb - 0.00 in0.0 mm 0.00 in0.0 mm
10:10 AM 68.0°F20.0°C 42.7°F5.9°C 40% 1.2 mph N1.9 kmh N 3.5 mph5.6 kmh 29.97 in1014.9 mb - 0.00 in0.0 mm 0.00 in0.0 mm
10:20 AM 68.7°F20.4°C 41.4°F5.2°C 37% Calm Calm 3.5 mph5.6 kmh 29.97 in1014.9 mb - 0.00 in0.0 mm 0.00 in0.0 mm
10:30 AM 69.1°F20.6°C 41.7°F5.4°C 37% Calm Calm 3.5 mph5.6 kmh 29.97 in1014.9 mb - 0.00 in0.0 mm 0.00 in0.0 mm
10:40 AM 69.1°F20.6°C 41.0°F5.0°C 36% 1.2 mph N1.9 kmh N 8.1 mph13.0 kmh 29.97 in1014.9 mb - 0.00 in0.0 mm 0.00 in0.0 mm
10:50 AM 70.5°F21.4°C 40.0°F4.4°C 33% 3.5 mph N5.6 kmh N 8.1 mph13.0 kmh 29.97 in1014.9 mb - 0.00 in0.0 mm 0.00 in0.0 mm
11:00 AM 70.2°F21.2°C 39.7°F4.3°C 33% 4.6 mph NNW7.4 kmh NNW 9.2 mph14.8 kmh 29.97 in1014.9 mb - 0.00 in0.0 mm 0.00 in0.0 mm
11:10 AM 71.4°F21.9°C 40.0°F4.4°C 32% 4.6 mph NE7.4 kmh NE 5.8 mph9.3 kmh 29.97 in1014.9 mb - 0.00 in0.0 mm 0.00 in0.0 mm
11:20 AM 71.4°F21.9°C 40.0°F4.4°C 32% 3.5 mph N5.6 kmh N 5.8 mph9.3 kmh 29.97 in1014.9 mb - 0.00 in0.0 mm 0.00 in0.0 mm
11:30 AM 68.7°F20.4°C 37.6°F3.1°C 32% 3.5 mph N5.6 kmh N 5.8 mph9.3 kmh 29.97 in1014.9 mb - 0.00 in0.0 mm 0.00 in0.0 mm
11:40 AM 68.9°F20.5°C 38.6°F3.7°C 33% Calm Calm -- 29.97 in1014.9 mb - 0.00 in0.0 mm 0.00 in0.0 mm
11:50 AM 69.5°F20.8°C 38.3°F3.5°C 32% 2.3 mph WSW3.7 kmh WSW 3.5 mph5.6 kmh 29.94 in1013.9 mb - 0.00 in0.0 mm 0.00 in0.0 mm
12:00 PM 71.1°F21.7°C 39.8°F4.3°C 32% 4.6 mph NE7.4 kmh NE 8.1 mph13.0 kmh 29.94 in1013.9 mb - 0.00 in0.0 mm 0.00 in0.0 mm
12:10 PM 72.3°F22.4°C 40.7°F4.8°C 32% 3.5 mph NE5.6 kmh NE 5.8 mph9.3 kmh 29.94 in1013.9 mb - 0.00 in0.0 mm 0.00 in0.0 mm
12:20 PM 73.5°F23.1°C 41.0°F5.0°C 31% 4.6 mph NE7.4 kmh NE 3.5 mph5.6 kmh 29.94 in1013.9 mb - 0.00 in0.0 mm 0.00 in0.0 mm
12:30 PM 73.0°F22.8°C 40.6°F4.8°C 31% 3.5 mph N5.6 kmh N 6.9 mph11.1 kmh 29.91 in1012.9 mb - 0.00 in0.0 mm 0.00 in0.0 mm
12:40 PM 72.9°F22.7°C 40.5°F4.7°C 31% 5.8 mph NNW9.3 kmh NNW 8.1 mph13.0 kmh 29.91 in1012.9 mb - 0.00 in0.0 mm 0.00 in0.0 mm
12:50 PM 73.4°F23.0°C 40.0°F4.4°C 30% 3.5 mph NNW5.6 kmh NNW 5.8 mph9.3 kmh 29.94 in1013.9 mb - 0.00 in0.0 mm 0.00 in0.0 mm
01:00 PM 73.5°F23.1°C 39.3°F4.1°C 29% 2.3 mph N3.7 kmh N 5.8 mph9.3 kmh 29.94 in1013.9 mb - 0.00 in0.0 mm 0.00 in0.0 mm
01:10 PM 73.5°F23.1°C 39.3°F4.1°C 29% 3.5 mph N5.6 kmh N 8.1 mph13.0 kmh 29.94 in1013.9 mb - 0.00 in0.0 mm 0.00 in0.0 mm
01:20 PM 70.7°F21.5°C 38.6°F3.7°C 31% 5.8 mph NW9.3 kmh NW 8.1 mph13.0 kmh 29.94 in1013.9 mb - 0.00 in0.0 mm 0.00 in0.0 mm
01:30 PM 68.7°F20.4°C 37.7°F3.2°C 32% 3.5 mph WNW5.6 kmh WNW 5.8 mph9.3 kmh 29.94 in1013.9 mb - 0.00 in0.0 mm 0.00 in0.0 mm
01:40 PM 69.3°F20.7°C 38.2°F3.4°C 32% Calm Calm 2.3 mph3.7 kmh 29.94 in1013.9 mb - 0.00 in0.0 mm 0.00 in0.0 mm
01:50 PM 69.1°F20.6°C 38.0°F3.3°C 32% 2.3 mph SE3.7 kmh SE 3.5 mph5.6 kmh 29.91 in1012.9 mb - 0.00 in0.0 mm 0.00 in0.0 mm
02:00 PM 72.3°F22.4°C 39.1°F3.9°C 30% Calm Calm -- 29.91 in1012.9 mb - 0.00 in0.0 mm 0.00 in0.0 mm
02:10 PM 70.3°F21.3°C 38.3°F3.5°C 31% 2.3 mph N3.7 kmh N 3.5 mph5.6 kmh 29.91 in1012.9 mb - 0.00 in0.0 mm 0.00 in0.0 mm
02:20 PM 70.1°F21.2°C 38.9°F3.8°C 32% 2.3 mph NW3.7 kmh NW 5.8 mph9.3 kmh 29.91 in1012.9 mb - 0.00 in0.0 mm 0.00 in0.0 mm
02:30 PM 71.3°F21.8°C 39.1°F3.9°C 31% 1.2 mph NNE1.9 kmh NNE 8.1 mph13.0 kmh 29.91 in1012.9 mb - 0.00 in0.0 mm 0.00 in0.0 mm
02:40 PM 74.6°F23.7°C 40.2°F4.6°C 29% 4.6 mph 7.4 kmh 9.2 mph14.8 kmh 29.91 in1012.9 mb - 0.00 in0.0 mm 0.00 in0.0 mm
02:50 PM 71.1°F21.7°C 37.2°F2.9°C 29% 3.5 mph N5.6 kmh N 6.9 mph11.1 kmh 29.91 in1012.9 mb - 0.00 in0.0 mm 0.00 in0.0 mm
03:00 PM 71.6°F22.0°C 37.7°F3.2°C 29% Calm Calm 3.5 mph5.6 kmh 29.88 in1011.9 mb - 0.00 in0.0 mm 0.00 in0.0 mm
03:10 PM 71.0°F21.7°C 37.1°F2.8°C 29% 3.5 mph N5.6 kmh N 4.6 mph7.4 kmh 29.88 in1011.9 mb - 0.00 in0.0 mm 0.00 in0.0 mm
03:20 PM 72.2°F22.3°C 38.2°F3.4°C 29% Calm Calm 3.5 mph5.6 kmh 29.88 in1011.9 mb - 0.00 in0.0 mm 0.00 in0.0 mm
03:30 PM 71.1°F21.7°C 36.3°F2.4°C 28% 3.5 mph NW5.6 kmh NW 4.6 mph7.4 kmh 29.88 in1011.9 mb - 0.00 in0.0 mm 0.00 in0.0 mm
03:40 PM 69.8°F21.0°C 35.2°F1.8°C 28% 2.3 mph SW3.7 kmh SW 3.5 mph5.6 kmh 29.88 in1011.9 mb - 0.00 in0.0 mm 0.00 in0.0 mm
03:50 PM 70.3°F21.3°C 35.7°F2.1°C 28% Calm Calm -- 29.88 in1011.9 mb - 0.00 in0.0 mm 0.00 in0.0 mm
04:00 PM 70.2°F21.2°C 35.6°F2.0°C 28% Calm Calm 3.5 mph5.6 kmh 29.88 in1011.9 mb - 0.00 in0.0 mm 0.00 in0.0 mm
04:10 PM 70.2°F21.2°C 35.5°F1.9°C 28% Calm Calm -- 29.88 in1011.9 mb - 0.00 in0.0 mm 0.00 in0.0 mm
04:20 PM 70.5°F21.4°C 35.8°F2.1°C 28% Calm Calm 2.3 mph3.7 kmh 29.88 in1011.9 mb - 0.00 in0.0 mm 0.00 in0.0 mm
04:30 PM 70.2°F21.2°C 34.6°F1.4°C 27% Calm Calm 2.3 mph3.7 kmh 29.88 in1011.9 mb - 0.00 in0.0 mm 0.00 in0.0 mm
04:40 PM 71.7°F22.1°C 34.9°F1.6°C 26% 1.2 mph SW1.9 kmh SW 3.5 mph5.6 kmh 29.88 in1011.9 mb - 0.00 in0.0 mm 0.00 in0.0 mm
04:50 PM 72.2°F22.3°C 35.4°F1.9°C 26% 2.3 mph WSW3.7 kmh WSW 3.5 mph5.6 kmh 29.88 in1011.9 mb - 0.00 in0.0 mm 0.00 in0.0 mm
05:00 PM 70.3°F21.3°C 33.8°F1.0°C 26% Calm Calm -- 29.86 in1011.2 mb - 0.00 in0.0 mm 0.00 in0.0 mm
05:10 PM 70.3°F21.3°C 33.8°F1.0°C 26% 1.2 mph SE1.9 kmh SE 4.6 mph7.4 kmh 29.86 in1011.2 mb - 0.00 in0.0 mm 0.00 in0.0 mm
05:20 PM 70.0°F21.1°C 34.5°F1.4°C 27% 2.3 mph SE3.7 kmh SE 3.5 mph5.6 kmh 29.86 in1011.2 mb - 0.00 in0.0 mm 0.00 in0.0 mm
05:30 PM 70.6°F21.4°C 34.0°F1.1°C 26% Calm Calm -- 29.86 in1011.2 mb - 0.00 in0.0 mm 0.00 in0.0 mm
05:40 PM 70.5°F21.4°C 34.0°F1.1°C 26% 2.3 mph NW3.7 kmh NW 3.5 mph5.6 kmh 29.86 in1011.2 mb - 0.00 in0.0 mm 0.00 in0.0 mm
05:50 PM 70.9°F21.6°C 34.3°F1.3°C 26% 1.2 mph N1.9 kmh N 3.5 mph5.6 kmh 29.86 in1011.2 mb - 0.00 in0.0 mm 0.00 in0.0 mm
06:00 PM 70.2°F21.2°C 33.7°F0.9°C 26% Calm Calm 3.5 mph5.6 kmh 29.86 in1011.2 mb - 0.00 in0.0 mm 0.00 in0.0 mm
06:10 PM 69.4°F20.8°C 34.0°F1.1°C 27% 1.2 mph SW1.9 kmh SW -- 29.86 in1011.2 mb - 0.00 in0.0 mm 0.00 in0.0 mm
06:20 PM 68.7°F20.4°C 34.3°F1.3°C 28% 2.3 mph NW3.7 kmh NW 3.5 mph5.6 kmh 29.86 in1011.2 mb - 0.00 in0.0 mm 0.00 in0.0 mm
06:30 PM 68.4°F20.2°C 35.7°F2.1°C 30% Calm Calm -- 29.86 in1011.2 mb - 0.00 in0.0 mm 0.00 in0.0 mm
06:40 PM 67.8°F19.9°C 36.9°F2.7°C 32% Calm Calm -- 29.86 in1011.2 mb - 0.00 in0.0 mm 0.00 in0.0 mm
06:50 PM 67.3°F19.6°C 36.4°F2.4°C 32% Calm Calm -- 29.86 in1011.2 mb - 0.00 in0.0 mm 0.00 in0.0 mm
07:00 PM 67.1°F19.5°C 37.0°F2.8°C 33% Calm Calm 3.5 mph5.6 kmh 29.86 in1011.2 mb - 0.00 in0.0 mm 0.00 in0.0 mm
07:10 PM 66.7°F19.3°C 36.7°F2.6°C 33% Calm Calm -- 29.86 in1011.2 mb - 0.00 in0.0 mm 0.00 in0.0 mm
07:20 PM 66.4°F19.1°C 36.4°F2.4°C 33% 2.3 mph E3.7 kmh E 3.5 mph5.6 kmh 29.88 in1011.9 mb - 0.00 in0.0 mm 0.00 in0.0 mm
07:30 PM 66.0°F18.9°C 36.8°F2.7°C 34% 2.3 mph N3.7 kmh N 3.5 mph5.6 kmh 29.88 in1011.9 mb - 0.00 in0.0 mm 0.00 in0.0 mm
07:40 PM 65.6°F18.7°C 36.4°F2.4°C 34% Calm Calm 2.3 mph3.7 kmh 29.88 in1011.9 mb - 0.00 in0.0 mm 0.00 in0.0 mm
07:50 PM 64.9°F18.3°C 36.6°F2.6°C 35% Calm Calm -- 29.88 in1011.9 mb - 0.00 in0.0 mm 0.00 in0.0 mm
08:00 PM 64.2°F17.9°C 36.7°F2.6°C 36% Calm Calm -- 29.86 in1011.2 mb - 0.00 in0.0 mm 0.00 in0.0 mm
08:10 PM 63.7°F17.6°C 36.2°F2.3°C 36% 2.3 mph N3.7 kmh N 3.5 mph5.6 kmh 29.86 in1011.2 mb - 0.00 in0.0 mm 0.00 in0.0 mm
08:20 PM 63.5°F17.5°C 35.3°F1.8°C 35% 3.5 mph N5.6 kmh N 3.5 mph5.6 kmh 29.88 in1011.9 mb - 0.00 in0.0 mm 0.00 in0.0 mm
08:30 PM 63.5°F17.5°C 35.3°F1.8°C 35% 3.5 mph N5.6 kmh N 4.6 mph7.4 kmh 29.88 in1011.9 mb - 0.00 in0.0 mm 0.00 in0.0 mm
08:40 PM 63.5°F17.5°C 36.0°F2.2°C 36% 2.3 mph N3.7 kmh N 5.8 mph9.3 kmh 29.88 in1011.9 mb - 0.00 in0.0 mm 0.00 in0.0 mm
08:50 PM 63.5°F17.5°C 36.0°F2.2°C 36% 2.3 mph N3.7 kmh N 3.5 mph5.6 kmh 29.88 in1011.9 mb - 0.00 in0.0 mm 0.00 in0.0 mm
09:00 PM 63.1°F17.3°C 35.7°F2.1°C 36% 3.5 mph N5.6 kmh N 5.8 mph9.3 kmh 29.91 in1012.9 mb - 0.00 in0.0 mm 0.00 in0.0 mm
09:10 PM 63.1°F17.3°C 35.7°F2.1°C 36% 3.5 mph N5.6 kmh N 8.1 mph13.0 kmh 29.91 in1012.9 mb - 0.00 in0.0 mm 0.00 in0.0 mm
09:20 PM 63.0°F17.2°C 35.6°F2.0°C 36% 3.5 mph N5.6 kmh N 5.8 mph9.3 kmh 29.91 in1012.9 mb - 0.00 in0.0 mm 0.00 in0.0 mm
09:30 PM 62.8°F17.1°C 35.4°F1.9°C 36% 3.5 mph N5.6 kmh N 3.5 mph5.6 kmh 29.91 in1012.9 mb - 0.00 in0.0 mm 0.00 in0.0 mm
09:40 PM 62.6°F17.0°C 35.3°F1.8°C 36% 3.5 mph N5.6 kmh N 4.6 mph7.4 kmh 29.91 in1012.9 mb - 0.00 in0.0 mm 0.00 in0.0 mm
09:50 PM 62.2°F16.8°C 35.6°F2.0°C 37% 3.5 mph N5.6 kmh N 3.5 mph5.6 kmh 29.91 in1012.9 mb - 0.00 in0.0 mm 0.00 in0.0 mm
10:00 PM 61.9°F16.6°C 35.3°F1.8°C 37% 3.5 mph N5.6 kmh N 5.8 mph9.3 kmh 29.91 in1012.9 mb - 0.00 in0.0 mm 0.00 in0.0 mm
10:10 PM 61.3°F16.3°C 34.8°F1.6°C 37% 3.5 mph N5.6 kmh N 5.8 mph9.3 kmh 29.91 in1012.9 mb - 0.00 in0.0 mm 0.00 in0.0 mm
10:20 PM 60.6°F15.9°C 34.9°F1.6°C 38% 2.3 mph N3.7 kmh N 3.5 mph5.6 kmh 29.91 in1012.9 mb - 0.00 in0.0 mm 0.00 in0.0 mm
10:30 PM 59.6°F15.3°C 35.2°F1.8°C 40% 2.3 mph N3.7 kmh N 4.6 mph7.4 kmh 29.91 in1012.9 mb - 0.00 in0.0 mm 0.00 in0.0 mm
10:40 PM 58.6°F14.8°C 35.6°F2.0°C 42% Calm Calm -- 29.91 in1012.9 mb - 0.00 in0.0 mm 0.00 in0.0 mm
10:50 PM 57.9°F14.4°C 36.1°F2.3°C 44% Calm Calm -- 29.91 in1012.9 mb - 0.00 in0.0 mm 0.00 in0.0 mm
11:00 PM 57.2°F14.0°C 36.1°F2.3°C 45% 2.3 mph N3.7 kmh N 3.5 mph5.6 kmh 29.91 in1012.9 mb - 0.00 in0.0 mm 0.00 in0.0 mm
11:10 PM 56.8°F13.8°C 36.3°F2.4°C 46% 2.3 mph N3.7 kmh N 3.5 mph5.6 kmh 29.91 in1012.9 mb - 0.00 in0.0 mm 0.00 in0.0 mm
11:20 PM 56.3°F13.5°C 36.8°F2.7°C 48% 3.5 mph WNW5.6 kmh WNW 3.5 mph5.6 kmh 29.91 in1012.9 mb - 0.00 in0.0 mm 0.00 in0.0 mm
11:30 PM 54.9°F12.7°C 36.6°F2.6°C 50% 1.2 mph WNW1.9 kmh WNW -- 29.91 in1012.9 mb - 0.00 in0.0 mm 0.00 in0.0 mm
11:40 PM 54.1°F12.3°C 36.9°F2.7°C 52% Calm Calm -- 29.91 in1012.9 mb - 0.00 in0.0 mm 0.00 in0.0 mm
11:50 PM 53.3°F11.8°C 37.0°F2.8°C 54% Calm Calm -- 29.91 in1012.9 mb - 0.00 in0.0 mm 0.00 in0.0 mm